sensor_id;sensor_type;location;lat;lon;timestamp;P1;durP1;ratioP1;P2;durP2;ratioP2
16593;SDS011;8410;52.532;13.336;2024-02-21T00:02:04;17.47;;;6.77;;
16593;SDS011;8410;52.532;13.336;2024-02-21T00:04:32;18.40;;;6.10;;
16593;SDS011;8410;52.532;13.336;2024-02-21T00:07:00;17.30;;;6.50;;
16593;SDS011;8410;52.532;13.336;2024-02-21T00:09:27;18.27;;;5.93;;
16593;SDS011;8410;52.532;13.336;2024-02-21T00:11:56;20.77;;;7.10;;
16593;SDS011;8410;52.532;13.336;2024-02-21T00:14:24;18.90;;;5.50;;
16593;SDS011;8410;52.532;13.336;2024-02-21T00:16:52;16.47;;;5.80;;
16593;SDS011;8410;52.532;13.336;2024-02-21T00:19:19;20.37;;;6.30;;
16593;SDS011;8410;52.532;13.336;2024-02-21T00:21:47;13.83;;;5.83;;
16593;SDS011;8410;52.532;13.336;2024-02-21T00:24:15;20.50;;;7.00;;
16593;SDS011;8410;52.532;13.336;2024-02-21T00:26:42;16.47;;;5.83;;
16593;SDS011;8410;52.532;13.336;2024-02-21T00:29:11;17.57;;;5.83;;
16593;SDS011;8410;52.532;13.336;2024-02-21T00:31:38;20.37;;;6.50;;
16593;SDS011;8410;52.532;13.336;2024-02-21T00:34:06;21.37;;;6.90;;
16593;SDS011;8410;52.532;13.336;2024-02-21T00:36:34;15.67;;;5.90;;
16593;SDS011;8410;52.532;13.336;2024-02-21T00:39:01;18.73;;;5.80;;
16593;SDS011;8410;52.532;13.336;2024-02-21T00:41:29;17.43;;;6.00;;
16593;SDS011;8410;52.532;13.336;2024-02-21T00:43:56;18.13;;;5.83;;
16593;SDS011;8410;52.532;13.336;2024-02-21T00:46:25;20.93;;;5.93;;
16593;SDS011;8410;52.532;13.336;2024-02-21T00:48:53;17.93;;;5.00;;
16593;SDS011;8410;52.532;13.336;2024-02-21T00:51:20;17.07;;;6.03;;
16593;SDS011;8410;52.532;13.336;2024-02-21T00:53:48;16.07;;;5.57;;
16593;SDS011;8410;52.532;13.336;2024-02-21T00:56:15;19.17;;;5.50;;
16593;SDS011;8410;52.532;13.336;2024-02-21T00:58:43;17.33;;;5.43;;
16593;SDS011;8410;52.532;13.336;2024-02-21T01:01:11;18.37;;;6.20;;
16593;SDS011;8410;52.532;13.336;2024-02-21T01:03:40;12.90;;;5.20;;
16593;SDS011;8410;52.532;13.336;2024-02-21T01:06:07;17.60;;;5.50;;
16593;SDS011;8410;52.532;13.336;2024-02-21T01:08:35;14.27;;;5.47;;
16593;SDS011;8410;52.532;13.336;2024-02-21T01:11:03;13.07;;;4.83;;
16593;SDS011;8410;52.532;13.336;2024-02-21T01:13:31;16.93;;;5.63;;
16593;SDS011;8410;52.532;13.336;2024-02-21T01:15:59;17.60;;;6.13;;
16593;SDS011;8410;52.532;13.336;2024-02-21T01:18:26;15.20;;;5.50;;
16593;SDS011;8410;52.532;13.336;2024-02-21T01:20:55;15.53;;;5.47;;
16593;SDS011;8410;52.532;13.336;2024-02-21T01:23:23;16.80;;;5.17;;
16593;SDS011;8410;52.532;13.336;2024-02-21T01:25:50;12.23;;;4.63;;
16593;SDS011;8410;52.532;13.336;2024-02-21T01:28:18;17.03;;;5.93;;
16593;SDS011;8410;52.532;13.336;2024-02-21T01:30:48;15.43;;;5.70;;
16593;SDS011;8410;52.532;13.336;2024-02-21T01:33:15;13.00;;;4.93;;
16593;SDS011;8410;52.532;13.336;2024-02-21T01:35:43;15.03;;;5.20;;
16593;SDS011;8410;52.532;13.336;2024-02-21T01:38:12;19.07;;;6.43;;
16593;SDS011;8410;52.532;13.336;2024-02-21T01:40:40;12.80;;;5.03;;
16593;SDS011;8410;52.532;13.336;2024-02-21T01:43:15;11.17;;;4.60;;
16593;SDS011;8410;52.532;13.336;2024-02-21T01:45:43;16.40;;;4.67;;
16593;SDS011;8410;52.532;13.336;2024-02-21T01:48:11;15.73;;;4.90;;
16593;SDS011;8410;52.532;13.336;2024-02-21T01:50:39;16.00;;;4.90;;
16593;SDS011;8410;52.532;13.336;2024-02-21T01:53:06;13.30;;;5.03;;
16593;SDS011;8410;52.532;13.336;2024-02-21T01:55:36;14.67;;;4.97;;
16593;SDS011;8410;52.532;13.336;2024-02-21T01:58:07;11.53;;;4.50;;
16593;SDS011;8410;52.532;13.336;2024-02-21T02:00:35;13.43;;;4.90;;
16593;SDS011;8410;52.532;13.336;2024-02-21T02:03:04;16.77;;;5.67;;
16593;SDS011;8410;52.532;13.336;2024-02-21T02:05:33;15.13;;;4.87;;
16593;SDS011;8410;52.532;13.336;2024-02-21T02:08:00;13.50;;;4.60;;
16593;SDS011;8410;52.532;13.336;2024-02-21T02:10:28;12.83;;;5.00;;
16593;SDS011;8410;52.532;13.336;2024-02-21T02:12:56;13.57;;;4.53;;
16593;SDS011;8410;52.532;13.336;2024-02-21T02:15:24;14.87;;;4.90;;
16593;SDS011;8410;52.532;13.336;2024-02-21T02:17:52;16.03;;;5.43;;
16593;SDS011;8410;52.532;13.336;2024-02-21T02:20:19;15.27;;;5.63;;
16593;SDS011;8410;52.532;13.336;2024-02-21T02:22:47;16.53;;;4.73;;
16593;SDS011;8410;52.532;13.336;2024-02-21T02:25:17;10.13;;;4.27;;
16593;SDS011;8410;52.532;13.336;2024-02-21T02:27:45;17.57;;;5.50;;
16593;SDS011;8410;52.532;13.336;2024-02-21T02:30:13;14.03;;;4.57;;
16593;SDS011;8410;52.532;13.336;2024-02-21T02:32:43;8.70;;;4.13;;
16593;SDS011;8410;52.532;13.336;2024-02-21T02:35:11;16.63;;;4.93;;
16593;SDS011;8410;52.532;13.336;2024-02-21T02:37:39;12.87;;;4.43;;
16593;SDS011;8410;52.532;13.336;2024-02-21T02:40:07;14.87;;;5.20;;
16593;SDS011;8410;52.532;13.336;2024-02-21T02:42:36;15.77;;;5.60;;
16593;SDS011;8410;52.532;13.336;2024-02-21T02:45:04;18.97;;;6.13;;
16593;SDS011;8410;52.532;13.336;2024-02-21T02:47:32;16.13;;;5.00;;
16593;SDS011;8410;52.532;13.336;2024-02-21T02:53:03;17.40;;;6.33;;
16593;SDS011;8410;52.532;13.336;2024-02-21T02:55:30;15.27;;;6.10;;
16593;SDS011;8410;52.532;13.336;2024-02-21T02:57:59;16.57;;;6.10;;
16593;SDS011;8410;52.532;13.336;2024-02-21T03:00:27;16.17;;;5.90;;
16593;SDS011;8410;52.532;13.336;2024-02-21T03:02:54;16.70;;;5.70;;
16593;SDS011;8410;52.532;13.336;2024-02-21T03:05:22;12.13;;;5.80;;
16593;SDS011;8410;52.532;13.336;2024-02-21T03:07:49;11.13;;;5.03;;
16593;SDS011;8410;52.532;13.336;2024-02-21T03:10:17;14.47;;;5.50;;
16593;SDS011;8410;52.532;13.336;2024-02-21T03:12:45;14.17;;;5.83;;
16593;SDS011;8410;52.532;13.336;2024-02-21T03:15:14;18.90;;;6.03;;
16593;SDS011;8410;52.532;13.336;2024-02-21T03:17:41;14.67;;;6.33;;
16593;SDS011;8410;52.532;13.336;2024-02-21T03:20:09;16.00;;;6.20;;
16593;SDS011;8410;52.532;13.336;2024-02-21T03:22:39;12.60;;;5.40;;
16593;SDS011;8410;52.532;13.336;2024-02-21T03:25:08;13.40;;;5.77;;
16593;SDS011;8410;52.532;13.336;2024-02-21T03:27:36;13.77;;;5.90;;
16593;SDS011;8410;52.532;13.336;2024-02-21T03:30:04;14.90;;;6.30;;
16593;SDS011;8410;52.532;13.336;2024-02-21T03:32:33;15.67;;;6.40;;
16593;SDS011;8410;52.532;13.336;2024-02-21T03:35:01;17.67;;;7.23;;
16593;SDS011;8410;52.532;13.336;2024-02-21T03:37:29;16.73;;;5.87;;
16593;SDS011;8410;52.532;13.336;2024-02-21T03:39:56;18.90;;;6.47;;
16593;SDS011;8410;52.532;13.336;2024-02-21T03:42:24;17.17;;;6.33;;
16593;SDS011;8410;52.532;13.336;2024-02-21T03:44:51;16.07;;;6.63;;
16593;SDS011;8410;52.532;13.336;2024-02-21T03:47:19;15.60;;;6.00;;
16593;SDS011;8410;52.532;13.336;2024-02-21T03:49:48;17.33;;;6.30;;
16593;SDS011;8410;52.532;13.336;2024-02-21T03:52:16;16.73;;;7.13;;
16593;SDS011;8410;52.532;13.336;2024-02-21T03:54:44;12.03;;;6.40;;
16593;SDS011;8410;52.532;13.336;2024-02-21T03:57:11;17.03;;;7.10;;
16593;SDS011;8410;52.532;13.336;2024-02-21T03:59:39;15.87;;;7.23;;
16593;SDS011;8410;52.532;13.336;2024-02-21T04:02:10;12.97;;;6.57;;
16593;SDS011;8410;52.532;13.336;2024-02-21T04:04:38;16.73;;;7.80;;
16593;SDS011;8410;52.532;13.336;2024-02-21T04:07:07;18.97;;;7.30;;
16593;SDS011;8410;52.532;13.336;2024-02-21T04:09:35;17.93;;;8.07;;
16593;SDS011;8410;52.532;13.336;2024-02-21T04:12:02;16.23;;;7.33;;
16593;SDS011;8410;52.532;13.336;2024-02-21T04:14:30;20.60;;;7.80;;
16593;SDS011;8410;52.532;13.336;2024-02-21T04:16:58;15.67;;;7.40;;
16593;SDS011;8410;52.532;13.336;2024-02-21T04:19:26;18.40;;;7.37;;
16593;SDS011;8410;52.532;13.336;2024-02-21T04:21:53;16.83;;;7.20;;
16593;SDS011;8410;52.532;13.336;2024-02-21T04:24:22;15.17;;;7.37;;
16593;SDS011;8410;52.532;13.336;2024-02-21T04:26:50;15.73;;;7.50;;
16593;SDS011;8410;52.532;13.336;2024-02-21T04:29:17;14.63;;;7.57;;
16593;SDS011;8410;52.532;13.336;2024-02-21T04:31:45;12.27;;;7.03;;
16593;SDS011;8410;52.532;13.336;2024-02-21T04:34:12;12.47;;;6.27;;
16593;SDS011;8410;52.532;13.336;2024-02-21T04:36:40;18.53;;;8.17;;
16593;SDS011;8410;52.532;13.336;2024-02-21T04:39:09;16.13;;;7.60;;
16593;SDS011;8410;52.532;13.336;2024-02-21T04:41:39;15.43;;;7.23;;
16593;SDS011;8410;52.532;13.336;2024-02-21T04:44:06;16.63;;;8.10;;
16593;SDS011;8410;52.532;13.336;2024-02-21T04:46:35;19.57;;;8.97;;
16593;SDS011;8410;52.532;13.336;2024-02-21T04:49:02;17.77;;;8.23;;
16593;SDS011;8410;52.532;13.336;2024-02-21T04:51:30;18.83;;;7.47;;
16593;SDS011;8410;52.532;13.336;2024-02-21T04:54:00;15.20;;;7.43;;
16593;SDS011;8410;52.532;13.336;2024-02-21T04:56:27;13.17;;;8.00;;
16593;SDS011;8410;52.532;13.336;2024-02-21T04:58:56;16.57;;;7.37;;
16593;SDS011;8410;52.532;13.336;2024-02-21T05:01:24;13.47;;;6.73;;
16593;SDS011;8410;52.532;13.336;2024-02-21T05:03:52;15.50;;;6.83;;
16593;SDS011;8410;52.532;13.336;2024-02-21T05:06:19;17.60;;;8.10;;
16593;SDS011;8410;52.532;13.336;2024-02-21T05:08:47;17.13;;;7.77;;
16593;SDS011;8410;52.532;13.336;2024-02-21T05:11:14;16.47;;;7.57;;
16593;SDS011;8410;52.532;13.336;2024-02-21T05:13:42;13.63;;;7.50;;
16593;SDS011;8410;52.532;13.336;2024-02-21T05:16:11;18.57;;;7.83;;
16593;SDS011;8410;52.532;13.336;2024-02-21T05:18:39;15.37;;;7.43;;
16593;SDS011;8410;52.532;13.336;2024-02-21T05:21:09;15.70;;;8.57;;
16593;SDS011;8410;52.532;13.336;2024-02-21T05:23:36;18.07;;;7.93;;
16593;SDS011;8410;52.532;13.336;2024-02-21T05:26:05;21.33;;;7.70;;
16593;SDS011;8410;52.532;13.336;2024-02-21T05:28:33;18.80;;;8.33;;
16593;SDS011;8410;52.532;13.336;2024-02-21T05:31:01;16.97;;;8.80;;
16593;SDS011;8410;52.532;13.336;2024-02-21T05:33:29;20.40;;;8.73;;
16593;SDS011;8410;52.532;13.336;2024-02-21T05:35:57;19.23;;;8.80;;
16593;SDS011;8410;52.532;13.336;2024-02-21T05:38:25;20.77;;;8.93;;
16593;SDS011;8410;52.532;13.336;2024-02-21T05:40:52;18.67;;;8.50;;
16593;SDS011;8410;52.532;13.336;2024-02-21T05:43:20;17.27;;;8.83;;
16593;SDS011;8410;52.532;13.336;2024-02-21T05:45:47;20.10;;;8.57;;
16593;SDS011;8410;52.532;13.336;2024-02-21T05:48:15;16.07;;;7.77;;
16593;SDS011;8410;52.532;13.336;2024-02-21T05:50:44;17.67;;;8.63;;
16593;SDS011;8410;52.532;13.336;2024-02-21T05:53:12;19.07;;;8.30;;
16593;SDS011;8410;52.532;13.336;2024-02-21T05:55:40;15.37;;;7.63;;
16593;SDS011;8410;52.532;13.336;2024-02-21T05:58:07;20.10;;;8.77;;
16593;SDS011;8410;52.532;13.336;2024-02-21T06:00:36;16.50;;;8.80;;
16593;SDS011;8410;52.532;13.336;2024-02-21T06:03:04;19.73;;;9.10;;
16593;SDS011;8410;52.532;13.336;2024-02-21T06:05:36;16.63;;;7.83;;
16593;SDS011;8410;52.532;13.336;2024-02-21T06:08:05;18.37;;;7.87;;
16593;SDS011;8410;52.532;13.336;2024-02-21T06:10:34;16.83;;;9.00;;
16593;SDS011;8410;52.532;13.336;2024-02-21T06:13:02;18.17;;;8.50;;
16593;SDS011;8410;52.532;13.336;2024-02-21T06:15:29;18.57;;;9.33;;
16593;SDS011;8410;52.532;13.336;2024-02-21T06:17:57;17.53;;;8.53;;
16593;SDS011;8410;52.532;13.336;2024-02-21T06:20:25;19.13;;;9.13;;
16593;SDS011;8410;52.532;13.336;2024-02-21T06:22:52;22.07;;;10.03;;
16593;SDS011;8410;52.532;13.336;2024-02-21T06:25:22;20.63;;;10.10;;
16593;SDS011;8410;52.532;13.336;2024-02-21T06:27:49;16.30;;;9.00;;
16593;SDS011;8410;52.532;13.336;2024-02-21T06:30:17;18.43;;;9.60;;
16593;SDS011;8410;52.532;13.336;2024-02-21T06:32:44;17.63;;;9.80;;
16593;SDS011;8410;52.532;13.336;2024-02-21T06:35:12;19.17;;;8.87;;
16593;SDS011;8410;52.532;13.336;2024-02-21T06:37:40;15.03;;;9.20;;
16593;SDS011;8410;52.532;13.336;2024-02-21T06:40:08;21.40;;;9.70;;
16593;SDS011;8410;52.532;13.336;2024-02-21T06:42:37;15.47;;;8.80;;
16593;SDS011;8410;52.532;13.336;2024-02-21T06:45:05;15.43;;;9.90;;
16593;SDS011;8410;52.532;13.336;2024-02-21T06:47:33;15.73;;;9.70;;
16593;SDS011;8410;52.532;13.336;2024-02-21T06:50:00;15.63;;;9.20;;
16593;SDS011;8410;52.532;13.336;2024-02-21T06:52:28;16.60;;;9.37;;
16593;SDS011;8410;52.532;13.336;2024-02-21T06:54:57;21.93;;;10.13;;
16593;SDS011;8410;52.532;13.336;2024-02-21T06:57:25;17.77;;;10.70;;
16593;SDS011;8410;52.532;13.336;2024-02-21T06:59:53;19.50;;;10.03;;
16593;SDS011;8410;52.532;13.336;2024-02-21T07:02:21;15.50;;;8.90;;
16593;SDS011;8410;52.532;13.336;2024-02-21T07:04:49;13.33;;;9.40;;
16593;SDS011;8410;52.532;13.336;2024-02-21T07:07:16;14.20;;;8.73;;
16593;SDS011;8410;52.532;13.336;2024-02-21T07:09:44;15.87;;;9.10;;
16593;SDS011;8410;52.532;13.336;2024-02-21T07:12:14;17.27;;;9.40;;
16593;SDS011;8410;52.532;13.336;2024-02-21T07:14:42;15.10;;;8.60;;
16593;SDS011;8410;52.532;13.336;2024-02-21T07:17:11;18.50;;;10.40;;
16593;SDS011;8410;52.532;13.336;2024-02-21T07:19:38;16.03;;;10.13;;
16593;SDS011;8410;52.532;13.336;2024-02-21T07:22:06;16.13;;;9.80;;
16593;SDS011;8410;52.532;13.336;2024-02-21T07:24:33;17.03;;;9.00;;
16593;SDS011;8410;52.532;13.336;2024-02-21T07:27:01;14.73;;;7.80;;
16593;SDS011;8410;52.532;13.336;2024-02-21T07:29:31;17.47;;;9.90;;
16593;SDS011;8410;52.532;13.336;2024-02-21T07:31:58;17.67;;;9.83;;
16593;SDS011;8410;52.532;13.336;2024-02-21T07:34:27;20.03;;;9.97;;
16593;SDS011;8410;52.532;13.336;2024-02-21T07:36:55;14.50;;;9.70;;
16593;SDS011;8410;52.532;13.336;2024-02-21T07:39:23;14.33;;;8.57;;
16593;SDS011;8410;52.532;13.336;2024-02-21T07:41:51;12.63;;;8.87;;
16593;SDS011;8410;52.532;13.336;2024-02-21T07:44:18;15.63;;;8.60;;
16593;SDS011;8410;52.532;13.336;2024-02-21T07:46:46;11.93;;;8.53;;
16593;SDS011;8410;52.532;13.336;2024-02-21T07:49:13;15.53;;;8.70;;
16593;SDS011;8410;52.532;13.336;2024-02-21T07:51:42;13.60;;;7.87;;
16593;SDS011;8410;52.532;13.336;2024-02-21T07:54:10;18.07;;;8.87;;
16593;SDS011;8410;52.532;13.336;2024-02-21T07:56:42;13.67;;;7.87;;
16593;SDS011;8410;52.532;13.336;2024-02-21T07:59:10;14.53;;;8.13;;
16593;SDS011;8410;52.532;13.336;2024-02-21T08:01:39;18.17;;;9.67;;
16593;SDS011;8410;52.532;13.336;2024-02-21T08:04:07;11.93;;;7.93;;
16593;SDS011;8410;52.532;13.336;2024-02-21T08:06:35;15.43;;;8.17;;
16593;SDS011;8410;52.532;13.336;2024-02-21T08:09:03;14.53;;;8.40;;
16593;SDS011;8410;52.532;13.336;2024-02-21T08:11:31;18.13;;;8.73;;
16593;SDS011;8410;52.532;13.336;2024-02-21T08:13:59;14.27;;;7.80;;
16593;SDS011;8410;52.532;13.336;2024-02-21T08:16:27;14.07;;;8.13;;
16593;SDS011;8410;52.532;13.336;2024-02-21T08:18:54;13.80;;;8.87;;
16593;SDS011;8410;52.532;13.336;2024-02-21T08:21:22;15.60;;;8.80;;
16593;SDS011;8410;52.532;13.336;2024-02-21T08:23:49;14.73;;;7.97;;
16593;SDS011;8410;52.532;13.336;2024-02-21T08:26:19;15.27;;;9.00;;
16593;SDS011;8410;52.532;13.336;2024-02-21T08:28:46;16.53;;;8.83;;
16593;SDS011;8410;52.532;13.336;2024-02-21T08:31:18;14.07;;;8.73;;
16593;SDS011;8410;52.532;13.336;2024-02-21T08:33:46;15.30;;;8.47;;
16593;SDS011;8410;52.532;13.336;2024-02-21T08:36:17;14.17;;;8.57;;
16593;SDS011;8410;52.532;13.336;2024-02-21T08:38:44;12.10;;;8.43;;
16593;SDS011;8410;52.532;13.336;2024-02-21T08:41:12;15.30;;;7.83;;
16593;SDS011;8410;52.532;13.336;2024-02-21T08:43:41;14.90;;;8.60;;
16593;SDS011;8410;52.532;13.336;2024-02-21T08:46:09;17.67;;;8.63;;
16593;SDS011;8410;52.532;13.336;2024-02-21T08:48:36;13.60;;;8.63;;
16593;SDS011;8410;52.532;13.336;2024-02-21T08:51:04;15.40;;;9.00;;
16593;SDS011;8410;52.532;13.336;2024-02-21T08:53:32;14.97;;;9.20;;
16593;SDS011;8410;52.532;13.336;2024-02-21T08:55:59;16.37;;;9.30;;
16593;SDS011;8410;52.532;13.336;2024-02-21T08:58:27;14.87;;;9.53;;
16593;SDS011;8410;52.532;13.336;2024-02-21T09:00:56;15.07;;;8.93;;
16593;SDS011;8410;52.532;13.336;2024-02-21T09:03:24;13.40;;;9.53;;
16593;SDS011;8410;52.532;13.336;2024-02-21T09:05:52;15.97;;;10.33;;
16593;SDS011;8410;52.532;13.336;2024-02-21T09:08:20;19.43;;;9.57;;
16593;SDS011;8410;52.532;13.336;2024-02-21T09:10:48;15.27;;;9.73;;
16593;SDS011;8410;52.532;13.336;2024-02-21T09:13:16;14.67;;;8.90;;
16593;SDS011;8410;52.532;13.336;2024-02-21T09:15:43;15.27;;;8.37;;
16593;SDS011;8410;52.532;13.336;2024-02-21T09:18:12;14.50;;;9.63;;
16593;SDS011;8410;52.532;13.336;2024-02-21T09:20:40;13.47;;;9.43;;
16593;SDS011;8410;52.532;13.336;2024-02-21T09:23:08;12.73;;;8.80;;
16593;SDS011;8410;52.532;13.336;2024-02-21T09:25:35;15.23;;;9.40;;
16593;SDS011;8410;52.532;13.336;2024-02-21T09:28:03;15.03;;;9.83;;
16593;SDS011;8410;52.532;13.336;2024-02-21T09:30:32;14.10;;;9.93;;
16593;SDS011;8410;52.532;13.336;2024-02-21T09:32:59;15.13;;;9.40;;
16593;SDS011;8410;52.532;13.336;2024-02-21T09:35:29;14.57;;;10.43;;
16593;SDS011;8410;52.532;13.336;2024-02-21T09:37:57;15.43;;;10.57;;
16593;SDS011;8410;52.532;13.336;2024-02-21T09:40:24;18.27;;;10.53;;
16593;SDS011;8410;52.532;13.336;2024-02-21T09:42:55;15.67;;;11.27;;
16593;SDS011;8410;52.532;13.336;2024-02-21T09:45:30;26.60;;;11.17;;
16593;SDS011;8410;52.532;13.336;2024-02-21T09:48:02;15.13;;;10.20;;
16593;SDS011;8410;52.532;13.336;2024-02-21T09:50:41;13.97;;;9.97;;
16593;SDS011;8410;52.532;13.336;2024-02-21T09:53:11;15.00;;;10.60;;
16593;SDS011;8410;52.532;13.336;2024-02-21T09:55:40;14.80;;;10.00;;
16593;SDS011;8410;52.532;13.336;2024-02-21T09:58:08;15.37;;;9.77;;
16593;SDS011;8410;52.532;13.336;2024-02-21T10:00:36;15.10;;;9.90;;
16593;SDS011;8410;52.532;13.336;2024-02-21T10:03:03;13.57;;;9.90;;
16593;SDS011;8410;52.532;13.336;2024-02-21T10:05:36;17.73;;;9.97;;
16593;SDS011;8410;52.532;13.336;2024-02-21T10:08:06;16.20;;;9.23;;
16593;SDS011;8410;52.532;13.336;2024-02-21T10:10:40;14.93;;;9.60;;
16593;SDS011;8410;52.532;13.336;2024-02-21T10:13:09;14.97;;;10.17;;
16593;SDS011;8410;52.532;13.336;2024-02-21T10:15:37;13.73;;;9.40;;
16593;SDS011;8410;52.532;13.336;2024-02-21T10:18:04;16.30;;;9.67;;
16593;SDS011;8410;52.532;13.336;2024-02-21T10:20:33;11.27;;;8.87;;
16593;SDS011;8410;52.532;13.336;2024-02-21T10:23:01;12.53;;;9.80;;
16593;SDS011;8410;52.532;13.336;2024-02-21T10:25:31;14.17;;;10.30;;
16593;SDS011;8410;52.532;13.336;2024-02-21T10:27:58;12.90;;;8.30;;
16593;SDS011;8410;52.532;13.336;2024-02-21T10:30:26;13.87;;;8.93;;
16593;SDS011;8410;52.532;13.336;2024-02-21T10:32:53;15.03;;;9.63;;
16593;SDS011;8410;52.532;13.336;2024-02-21T10:35:25;12.23;;;8.70;;
16593;SDS011;8410;52.532;13.336;2024-02-21T10:37:54;12.93;;;9.47;;
16593;SDS011;8410;52.532;13.336;2024-02-21T10:40:26;11.70;;;8.53;;
16593;SDS011;8410;52.532;13.336;2024-02-21T10:42:57;11.27;;;8.60;;
16593;SDS011;8410;52.532;13.336;2024-02-21T10:45:29;15.00;;;9.93;;
16593;SDS011;8410;52.532;13.336;2024-02-21T10:48:01;15.87;;;9.07;;
16593;SDS011;8410;52.532;13.336;2024-02-21T10:50:36;10.90;;;9.30;;
16593;SDS011;8410;52.532;13.336;2024-02-21T10:53:17;11.47;;;8.77;;
16593;SDS011;8410;52.532;13.336;2024-02-21T10:55:54;14.30;;;8.97;;
16593;SDS011;8410;52.532;13.336;2024-02-21T10:58:27;12.93;;;9.73;;
16593;SDS011;8410;52.532;13.336;2024-02-21T11:00:57;12.50;;;9.40;;
16593;SDS011;8410;52.532;13.336;2024-02-21T11:03:24;13.80;;;9.67;;
16593;SDS011;8410;52.532;13.336;2024-02-21T11:05:52;13.70;;;8.53;;
16593;SDS011;8410;52.532;13.336;2024-02-21T11:08:20;10.67;;;8.57;;
16593;SDS011;8410;52.532;13.336;2024-02-21T11:10:48;11.00;;;8.63;;
16593;SDS011;8410;52.532;13.336;2024-02-21T11:13:16;17.13;;;11.73;;
16593;SDS011;8410;52.532;13.336;2024-02-21T11:15:45;11.13;;;8.60;;
16593;SDS011;8410;52.532;13.336;2024-02-21T11:18:22;12.30;;;7.77;;
16593;SDS011;8410;52.532;13.336;2024-02-21T11:20:50;12.10;;;7.90;;
16593;SDS011;8410;52.532;13.336;2024-02-21T11:23:24;13.80;;;8.53;;
16593;SDS011;8410;52.532;13.336;2024-02-21T11:25:51;11.30;;;7.90;;
16593;SDS011;8410;52.532;13.336;2024-02-21T11:28:25;9.90;;;7.93;;
16593;SDS011;8410;52.532;13.336;2024-02-21T11:31:04;7.80;;;6.97;;
16593;SDS011;8410;52.532;13.336;2024-02-21T11:33:34;13.80;;;7.13;;
16593;SDS011;8410;52.532;13.336;2024-02-21T11:36:05;8.10;;;6.63;;
16593;SDS011;8410;52.532;13.336;2024-02-21T11:38:33;11.77;;;7.60;;
16593;SDS011;8410;52.532;13.336;2024-02-21T11:41:01;11.23;;;6.67;;
16593;SDS011;8410;52.532;13.336;2024-02-21T11:43:29;12.03;;;6.93;;
16593;SDS011;8410;52.532;13.336;2024-02-21T11:46:01;10.30;;;6.27;;
16593;SDS011;8410;52.532;13.336;2024-02-21T11:48:30;9.50;;;6.37;;
16593;SDS011;8410;52.532;13.336;2024-02-21T11:50:59;8.50;;;5.73;;
16593;SDS011;8410;52.532;13.336;2024-02-21T11:53:27;8.43;;;6.50;;
16593;SDS011;8410;52.532;13.336;2024-02-21T11:56:01;8.50;;;6.37;;
16593;SDS011;8410;52.532;13.336;2024-02-21T11:58:29;9.43;;;5.87;;
16593;SDS011;8410;52.532;13.336;2024-02-21T12:00:57;8.13;;;6.10;;
16593;SDS011;8410;52.532;13.336;2024-02-21T12:03:26;8.90;;;5.83;;
16593;SDS011;8410;52.532;13.336;2024-02-21T12:05:53;7.80;;;5.57;;
16593;SDS011;8410;52.532;13.336;2024-02-21T12:08:23;7.67;;;6.13;;
16593;SDS011;8410;52.532;13.336;2024-02-21T12:10:50;9.37;;;5.33;;
16593;SDS011;8410;52.532;13.336;2024-02-21T12:13:18;10.17;;;8.40;;
16593;SDS011;8410;52.532;13.336;2024-02-21T12:15:50;9.83;;;5.80;;
16593;SDS011;8410;52.532;13.336;2024-02-21T12:18:17;8.67;;;5.30;;
16593;SDS011;8410;52.532;13.336;2024-02-21T12:20:49;8.73;;;5.33;;
16593;SDS011;8410;52.532;13.336;2024-02-21T12:23:18;9.07;;;5.57;;
16593;SDS011;8410;52.532;13.336;2024-02-21T12:25:45;8.90;;;5.70;;
16593;SDS011;8410;52.532;13.336;2024-02-21T12:28:13;5.87;;;4.90;;
16593;SDS011;8410;52.532;13.336;2024-02-21T12:30:40;10.87;;;6.07;;
16593;SDS011;8410;52.532;13.336;2024-02-21T12:33:09;5.87;;;4.80;;
16593;SDS011;8410;52.532;13.336;2024-02-21T12:35:36;8.90;;;5.40;;
16593;SDS011;8410;52.532;13.336;2024-02-21T12:38:05;7.17;;;5.07;;
16593;SDS011;8410;52.532;13.336;2024-02-21T12:40:33;8.00;;;4.73;;
16593;SDS011;8410;52.532;13.336;2024-02-21T12:43:01;6.37;;;4.63;;
16593;SDS011;8410;52.532;13.336;2024-02-21T12:45:29;6.77;;;4.77;;
16593;SDS011;8410;52.532;13.336;2024-02-21T12:47:56;6.30;;;4.33;;
16593;SDS011;8410;52.532;13.336;2024-02-21T12:50:24;10.47;;;5.00;;
16593;SDS011;8410;52.532;13.336;2024-02-21T12:52:52;5.50;;;3.97;;
16593;SDS011;8410;52.532;13.336;2024-02-21T12:55:21;7.50;;;4.00;;
16593;SDS011;8410;52.532;13.336;2024-02-21T12:57:48;6.07;;;4.23;;
16593;SDS011;8410;52.532;13.336;2024-02-21T13:00:16;4.77;;;4.10;;
16593;SDS011;8410;52.532;13.336;2024-02-21T13:02:44;5.20;;;3.80;;
16593;SDS011;8410;52.532;13.336;2024-02-21T13:05:12;10.73;;;4.73;;
16593;SDS011;8410;52.532;13.336;2024-02-21T13:07:40;6.97;;;4.73;;
16593;SDS011;8410;52.532;13.336;2024-02-21T13:10:08;8.07;;;5.13;;
16593;SDS011;8410;52.532;13.336;2024-02-21T13:12:37;5.07;;;4.10;;
16593;SDS011;8410;52.532;13.336;2024-02-21T13:15:04;7.43;;;4.00;;
16593;SDS011;8410;52.532;13.336;2024-02-21T13:17:33;5.53;;;3.97;;
16593;SDS011;8410;52.532;13.336;2024-02-21T13:20:01;6.63;;;4.63;;
16593;SDS011;8410;52.532;13.336;2024-02-21T13:22:29;10.63;;;4.00;;
16593;SDS011;8410;52.532;13.336;2024-02-21T13:24:56;5.87;;;4.10;;
16593;SDS011;8410;52.532;13.336;2024-02-21T13:27:24;6.10;;;4.07;;
16593;SDS011;8410;52.532;13.336;2024-02-21T13:29:53;9.33;;;4.47;;
16593;SDS011;8410;52.532;13.336;2024-02-21T13:32:21;6.60;;;4.10;;
16593;SDS011;8410;52.532;13.336;2024-02-21T13:34:48;6.07;;;4.70;;
16593;SDS011;8410;52.532;13.336;2024-02-21T13:37:18;6.87;;;4.40;;
16593;SDS011;8410;52.532;13.336;2024-02-21T13:39:47;6.60;;;4.77;;
16593;SDS011;8410;52.532;13.336;2024-02-21T13:42:15;6.23;;;4.20;;
16593;SDS011;8410;52.532;13.336;2024-02-21T13:44:43;6.13;;;4.37;;
16593;SDS011;8410;52.532;13.336;2024-02-21T13:47:12;7.10;;;5.23;;
16593;SDS011;8410;52.532;13.336;2024-02-21T13:49:41;7.57;;;4.07;;
16593;SDS011;8410;52.532;13.336;2024-02-21T13:52:08;6.47;;;4.73;;
16593;SDS011;8410;52.532;13.336;2024-02-21T13:54:35;7.80;;;4.53;;
16593;SDS011;8410;52.532;13.336;2024-02-21T13:57:03;7.53;;;4.67;;
16593;SDS011;8410;52.532;13.336;2024-02-21T13:59:31;6.67;;;4.50;;
16593;SDS011;8410;52.532;13.336;2024-02-21T14:01:59;7.70;;;4.80;;
16593;SDS011;8410;52.532;13.336;2024-02-21T14:04:28;7.97;;;4.37;;
16593;SDS011;8410;52.532;13.336;2024-02-21T14:06:56;8.70;;;5.80;;
16593;SDS011;8410;52.532;13.336;2024-02-21T14:09:24;11.53;;;4.93;;
16593;SDS011;8410;52.532;13.336;2024-02-21T14:11:51;7.63;;;4.13;;
16593;SDS011;8410;52.532;13.336;2024-02-21T14:14:19;8.43;;;3.90;;
16593;SDS011;8410;52.532;13.336;2024-02-21T14:16:47;5.77;;;3.80;;
16593;SDS011;8410;52.532;13.336;2024-02-21T14:19:15;7.03;;;4.07;;
16593;SDS011;8410;52.532;13.336;2024-02-21T14:21:45;7.00;;;3.83;;
16593;SDS011;8410;52.532;13.336;2024-02-21T14:24:13;6.23;;;4.23;;
16593;SDS011;8410;52.532;13.336;2024-02-21T14:26:40;7.03;;;3.77;;
16593;SDS011;8410;52.532;13.336;2024-02-21T14:29:08;6.33;;;4.23;;
16593;SDS011;8410;52.532;13.336;2024-02-21T14:31:36;5.57;;;3.07;;
16593;SDS011;8410;52.532;13.336;2024-02-21T14:34:03;6.67;;;3.73;;
16593;SDS011;8410;52.532;13.336;2024-02-21T14:36:31;7.30;;;3.80;;
16593;SDS011;8410;52.532;13.336;2024-02-21T14:39:00;8.10;;;3.50;;
16593;SDS011;8410;52.532;13.336;2024-02-21T14:41:29;5.40;;;3.40;;
16593;SDS011;8410;52.532;13.336;2024-02-21T14:43:56;7.27;;;3.97;;
16593;SDS011;8410;52.532;13.336;2024-02-21T14:46:30;7.13;;;3.60;;